sensor_id;sensor_type;location;lat;lon;timestamp;pressure;altitude;pressure_sealevel;temperature;humidity
59825;BME280;45703;50.898;6.054;2022-10-16T00:00:31;99757.34;;;13.87;100.00
59825;BME280;45703;50.898;6.054;2022-10-16T00:02:56;99749.28;;;13.87;100.00
59825;BME280;45703;50.898;6.054;2022-10-16T00:05:22;99740.69;;;13.85;100.00
59825;BME280;45703;50.898;6.054;2022-10-16T00:07:47;99727.22;;;13.80;100.00
59825;BME280;45703;50.898;6.054;2022-10-16T00:10:12;99737.44;;;13.83;100.00
59825;BME280;45703;50.898;6.054;2022-10-16T00:12:38;99735.84;;;13.82;100.00
59825;BME280;45703;50.898;6.054;2022-10-16T00:15:04;99737.97;;;13.80;100.00
59825;BME280;45703;50.898;6.054;2022-10-16T00:17:30;99739.03;;;13.79;100.00
59825;BME280;45703;50.898;6.054;2022-10-16T00:19:55;99716.97;;;13.72;100.00
59825;BME280;45703;50.898;6.054;2022-10-16T00:22:22;99725.28;;;13.75;100.00
59825;BME280;45703;50.898;6.054;2022-10-16T00:24:47;99736.53;;;13.72;100.00
59825;BME280;45703;50.898;6.054;2022-10-16T00:27:12;99721.44;;;13.66;100.00
59825;BME280;45703;50.898;6.054;2022-10-16T00:29:38;99731.38;;;13.66;100.00
59825;BME280;45703;50.898;6.054;2022-10-16T00:32:03;99720.66;;;13.66;100.00
59825;BME280;45703;50.898;6.054;2022-10-16T00:34:28;99717.41;;;13.64;100.00
59825;BME280;45703;50.898;6.054;2022-10-16T00:36:54;99716.88;;;13.62;100.00
59825;BME280;45703;50.898;6.054;2022-10-16T00:39:19;99713.63;;;13.60;100.00
59825;BME280;45703;50.898;6.054;2022-10-16T00:41:45;99714.69;;;13.59;100.00
59825;BME280;45703;50.898;6.054;2022-10-16T00:47:09;99720.00;;;13.54;100.00
59825;BME280;45703;50.898;6.054;2022-10-16T00:49:36;99727.47;;;13.52;100.00
59825;BME280;45703;50.898;6.054;2022-10-16T00:52:02;99732.78;;;13.47;100.00
59825;BME280;45703;50.898;6.054;2022-10-16T00:54:29;99728.78;;;13.49;100.00
59825;BME280;45703;50.898;6.054;2022-10-16T00:56:58;99731.16;;;13.46;100.00
59825;BME280;45703;50.898;6.054;2022-10-16T00:59:31;99731.66;;;13.43;100.00
59825;BME280;45703;50.898;6.054;2022-10-16T01:01:58;99734.84;;;13.40;100.00
59825;BME280;45703;50.898;6.054;2022-10-16T01:04:25;99749.88;;;13.41;100.00
59825;BME280;45703;50.898;6.054;2022-10-16T01:09:28;99743.72;;;13.40;100.00
59825;BME280;45703;50.898;6.054;2022-10-16T01:14:32;99726.00;;;13.39;100.00
59825;BME280;45703;50.898;6.054;2022-10-16T01:17:26;99732.66;;;13.37;100.00
59825;BME280;45703;50.898;6.054;2022-10-16T01:23:10;99741.78;;;13.36;100.00
59825;BME280;45703;50.898;6.054;2022-10-16T01:28:34;99747.63;;;13.33;100.00
59825;BME280;45703;50.898;6.054;2022-10-16T01:31:02;99747.91;;;13.31;100.00
59825;BME280;45703;50.898;6.054;2022-10-16T01:33:32;99756.06;;;13.41;100.00
59825;BME280;45703;50.898;6.054;2022-10-16T01:36:08;99762.72;;;13.39;100.00
59825;BME280;45703;50.898;6.054;2022-10-16T01:38:38;99754.19;;;13.42;100.00
59825;BME280;45703;50.898;6.054;2022-10-16T01:41:09;99758.78;;;13.46;100.00
59825;BME280;45703;50.898;6.054;2022-10-16T01:43:40;99760.66;;;13.46;100.00
59825;BME280;45703;50.898;6.054;2022-10-16T01:46:10;99760.41;;;13.47;100.00
59825;BME280;45703;50.898;6.054;2022-10-16T01:48:36;99762.84;;;13.49;100.00
59825;BME280;45703;50.898;6.054;2022-10-16T01:51:15;99762.03;;;13.48;100.00
59825;BME280;45703;50.898;6.054;2022-10-16T01:53:48;99759.09;;;13.50;100.00
59825;BME280;45703;50.898;6.054;2022-10-16T01:56:16;99766.84;;;13.46;100.00
59825;BME280;45703;50.898;6.054;2022-10-16T01:58:48;99761.47;;;13.46;100.00
59825;BME280;45703;50.898;6.054;2022-10-16T02:01:18;99764.97;;;13.47;100.00
59825;BME280;45703;50.898;6.054;2022-10-16T02:03:46;99765.78;;;13.47;100.00
59825;BME280;45703;50.898;6.054;2022-10-16T02:06:15;99764.22;;;13.51;100.00
59825;BME280;45703;50.898;6.054;2022-10-16T02:08:41;99768.75;;;13.51;100.00
59825;BME280;45703;50.898;6.054;2022-10-16T02:11:09;99770.97;;;13.54;100.00
59825;BME280;45703;50.898;6.054;2022-10-16T02:13:52;99768.28;;;13.54;100.00
59825;BME280;45703;50.898;6.054;2022-10-16T02:16:19;99762.31;;;13.52;100.00
59825;BME280;45703;50.898;6.054;2022-10-16T02:18:44;99769.41;;;13.58;100.00
59825;BME280;45703;50.898;6.054;2022-10-16T02:21:16;99768.84;;;13.56;100.00
59825;BME280;45703;50.898;6.054;2022-10-16T02:26:42;99765.34;;;13.55;100.00
59825;BME280;45703;50.898;6.054;2022-10-16T02:29:12;99765.09;;;13.57;100.00
59825;BME280;45703;50.898;6.054;2022-10-16T02:31:42;99761.34;;;13.58;100.00
59825;BME280;45703;50.898;6.054;2022-10-16T02:34:09;99755.09;;;13.52;100.00
59825;BME280;45703;50.898;6.054;2022-10-16T02:36:37;99764.44;;;13.50;100.00
59825;BME280;45703;50.898;6.054;2022-10-16T02:39:05;99766.56;;;13.48;100.00
59825;BME280;45703;50.898;6.054;2022-10-16T02:41:31;99760.66;;;13.46;100.00
59825;BME280;45703;50.898;6.054;2022-10-16T02:43:57;99763.34;;;13.46;100.00
59825;BME280;45703;50.898;6.054;2022-10-16T02:46:22;99770.25;;;13.42;100.00
59825;BME280;45703;50.898;6.054;2022-10-16T02:48:48;99780.47;;;13.45;100.00
59825;BME280;45703;50.898;6.054;2022-10-16T02:51:13;99770.31;;;13.47;100.00
59825;BME280;45703;50.898;6.054;2022-10-16T02:53:39;99763.34;;;13.46;100.00
59825;BME280;45703;50.898;6.054;2022-10-16T02:56:04;99754.50;;;13.45;100.00
59825;BME280;45703;50.898;6.054;2022-10-16T02:58:29;99762.03;;;13.48;100.00
59825;BME280;45703;50.898;6.054;2022-10-16T03:00:55;99744.22;;;13.37;100.00
59825;BME280;45703;50.898;6.054;2022-10-16T03:03:21;99760.09;;;13.44;100.00
59825;BME280;45703;50.898;6.054;2022-10-16T03:05:46;99762.28;;;13.47;100.00
59825;BME280;45703;50.898;6.054;2022-10-16T03:08:12;99754.69;;;13.39;100.00
59825;BME280;45703;50.898;6.054;2022-10-16T03:10:38;99753.09;;;13.43;100.00
59825;BME280;45703;50.898;6.054;2022-10-16T03:13:03;99769.19;;;13.43;100.00
59825;BME280;45703;50.898;6.054;2022-10-16T03:15:28;99770.25;;;13.42;100.00
59825;BME280;45703;50.898;6.054;2022-10-16T03:17:54;99765.97;;;13.41;100.00
59825;BME280;45703;50.898;6.054;2022-10-16T03:20:19;99767.53;;;13.37;100.00
59825;BME280;45703;50.898;6.054;2022-10-16T03:22:45;99769.16;;;13.38;100.00
59825;BME280;45703;50.898;6.054;2022-10-16T03:25:10;99768.63;;;13.41;100.00
59825;BME280;45703;50.898;6.054;2022-10-16T03:27:36;99773.44;;;13.39;100.00
59825;BME280;45703;50.898;6.054;2022-10-16T03:30:01;99769.69;;;13.40;100.00
59825;BME280;45703;50.898;6.054;2022-10-16T03:32:27;99764.34;;;13.40;100.00
59825;BME280;45703;50.898;6.054;2022-10-16T03:34:53;99780.13;;;13.36;100.00
59825;BME280;45703;50.898;6.054;2022-10-16T03:37:19;99786.78;;;13.34;100.00
59825;BME280;45703;50.898;6.054;2022-10-16T03:39:45;99799.56;;;13.48;100.00
59825;BME280;45703;50.898;6.054;2022-10-16T03:42:10;99796.50;;;13.40;100.00
59825;BME280;45703;50.898;6.054;2022-10-16T03:44:36;99794.28;;;13.32;100.00
59825;BME280;45703;50.898;6.054;2022-10-16T03:47:01;99790.34;;;13.39;100.00
59825;BME280;45703;50.898;6.054;2022-10-16T03:49:27;99782.50;;;13.33;100.00
59825;BME280;45703;50.898;6.054;2022-10-16T03:51:52;99804.25;;;13.36;100.00
59825;BME280;45703;50.898;6.054;2022-10-16T03:54:17;99792.97;;;13.34;100.00
59825;BME280;45703;50.898;6.054;2022-10-16T03:56:43;99797.03;;;13.37;100.00
59825;BME280;45703;50.898;6.054;2022-10-16T03:59:08;99804.56;;;13.40;100.00
59825;BME280;45703;50.898;6.054;2022-10-16T04:01:33;99808.25;;;13.34;100.00
59825;BME280;45703;50.898;6.054;2022-10-16T04:03:59;99813.38;;;13.35;100.00
59825;BME280;45703;50.898;6.054;2022-10-16T04:06:24;99795.91;;;13.33;100.00
59825;BME280;45703;50.898;6.054;2022-10-16T04:08:49;99798.56;;;13.33;100.00
59825;BME280;45703;50.898;6.054;2022-10-16T04:11:15;99795.59;;;13.29;100.00
59825;BME280;45703;50.898;6.054;2022-10-16T04:13:40;99801.19;;;13.28;100.00
59825;BME280;45703;50.898;6.054;2022-10-16T04:16:06;99781.19;;;13.14;100.00
59825;BME280;45703;50.898;6.054;2022-10-16T04:18:32;99803.09;;;13.27;100.00
59825;BME280;45703;50.898;6.054;2022-10-16T04:21:02;99800.31;;;13.22;100.00
59825;BME280;45703;50.898;6.054;2022-10-16T04:23:28;99809.97;;;13.23;100.00
59825;BME280;45703;50.898;6.054;2022-10-16T04:25:53;99820.13;;;13.21;100.00
59825;BME280;45703;50.898;6.054;2022-10-16T04:28:18;99816.41;;;13.22;100.00
59825;BME280;45703;50.898;6.054;2022-10-16T04:30:44;99835.91;;;13.18;100.00
59825;BME280;45703;50.898;6.054;2022-10-16T04:33:09;99843.69;;;13.19;100.00
59825;BME280;45703;50.898;6.054;2022-10-16T04:35:35;99858.00;;;13.25;100.00
59825;BME280;45703;50.898;6.054;2022-10-16T04:38:00;99845.09;;;13.22;100.00
59825;BME280;45703;50.898;6.054;2022-10-16T04:40:25;99842.47;;;13.27;100.00
59825;BME280;45703;50.898;6.054;2022-10-16T04:42:51;99837.34;;;13.25;100.00
59825;BME280;45703;50.898;6.054;2022-10-16T04:45:16;99833.31;;;13.23;100.00
59825;BME280;45703;50.898;6.054;2022-10-16T04:47:41;99847.28;;;13.25;100.00
59825;BME280;45703;50.898;6.054;2022-10-16T04:50:07;99832.56;;;13.27;100.00
59825;BME280;45703;50.898;6.054;2022-10-16T04:52:33;99846.41;;;13.41;100.00
59825;BME280;45703;50.898;6.054;2022-10-16T04:54:58;99861.88;;;13.34;100.00
59825;BME280;45703;50.898;6.054;2022-10-16T04:57:27;99863.47;;;13.35;100.00
59825;BME280;45703;50.898;6.054;2022-10-16T04:59:53;99868.53;;;13.31;100.00
59825;BME280;45703;50.898;6.054;2022-10-16T05:02:18;99868.53;;;13.31;100.00
59825;BME280;45703;50.898;6.054;2022-10-16T05:04:43;99870.66;;;13.29;100.00
59825;BME280;45703;50.898;6.054;2022-10-16T05:07:09;99867.72;;;13.31;100.00
59825;BME280;45703;50.898;6.054;2022-10-16T05:09:34;99872.03;;;13.32;100.00
59825;BME280;45703;50.898;6.054;2022-10-16T05:11:59;99870.97;;;13.33;100.00
59825;BME280;45703;50.898;6.054;2022-10-16T05:14:25;99866.38;;;13.28;100.00
59825;BME280;45703;50.898;6.054;2022-10-16T05:16:50;99864.16;;;13.25;100.00
59825;BME280;45703;50.898;6.054;2022-10-16T05:19:16;99881.84;;;13.26;100.00
59825;BME280;45703;50.898;6.054;2022-10-16T05:21:42;99894.53;;;13.31;100.00
59825;BME280;45703;50.898;6.054;2022-10-16T05:24:07;99887.53;;;13.30;100.00
59825;BME280;45703;50.898;6.054;2022-10-16T05:26:32;99891.78;;;13.26;100.00
59825;BME280;45703;50.898;6.054;2022-10-16T05:28:58;99892.28;;;13.23;100.00
59825;BME280;45703;50.898;6.054;2022-10-16T05:31:23;99900.63;;;13.26;100.00
59825;BME280;45703;50.898;6.054;2022-10-16T05:33:48;99896.66;;;13.29;100.00
59825;BME280;45703;50.898;6.054;2022-10-16T05:36:14;99893.47;;;13.32;100.00
59825;BME280;45703;50.898;6.054;2022-10-16T05:38:39;99899.91;;;13.31;100.00
59825;BME280;45703;50.898;6.054;2022-10-16T05:41:05;99918.66;;;13.31;100.00
59825;BME280;45703;50.898;6.054;2022-10-16T05:43:31;99911.69;;;13.30;100.00
59825;BME280;45703;50.898;6.054;2022-10-16T05:45:58;99911.13;;;13.28;100.00
59825;BME280;45703;50.898;6.054;2022-10-16T05:48:24;99922.47;;;13.35;100.00
59825;BME280;45703;50.898;6.054;2022-10-16T05:51:02;99925.16;;;13.35;100.00
59825;BME280;45703;50.898;6.054;2022-10-16T05:53:30;99930.03;;;13.38;100.00
59825;BME280;45703;50.898;6.054;2022-10-16T05:55:56;99920.78;;;13.29;100.00
59825;BME280;45703;50.898;6.054;2022-10-16T05:58:22;99927.75;;;13.30;100.00
59825;BME280;45703;50.898;6.054;2022-10-16T06:01:01;99928.66;;;13.35;100.00
59825;BME280;45703;50.898;6.054;2022-10-16T06:03:27;99925.09;;;13.30;100.00
59825;BME280;45703;50.898;6.054;2022-10-16T06:05:53;99943.13;;;13.34;100.00
59825;BME280;45703;50.898;6.054;2022-10-16T06:08:20;99939.63;;;13.34;100.00
59825;BME280;45703;50.898;6.054;2022-10-16T06:10:46;99939.06;;;13.32;100.00
59825;BME280;45703;50.898;6.054;2022-10-16T06:13:12;99940.19;;;13.36;100.00
59825;BME280;45703;50.898;6.054;2022-10-16T06:15:38;99952.53;;;13.37;100.00
59825;BME280;45703;50.898;6.054;2022-10-16T06:18:05;99966.00;;;13.42;100.00
59825;BME280;45703;50.898;6.054;2022-10-16T06:20:30;99962.75;;;13.40;100.00
59825;BME280;45703;50.898;6.054;2022-10-16T06:22:56;99966.00;;;13.42;100.00
59825;BME280;45703;50.898;6.054;2022-10-16T06:25:22;99968.47;;;13.43;100.00
59825;BME280;45703;50.898;6.054;2022-10-16T06:27:47;99967.63;;;13.43;100.00
59825;BME280;45703;50.898;6.054;2022-10-16T06:30:13;99968.47;;;13.43;100.00
59825;BME280;45703;50.898;6.054;2022-10-16T06:32:38;99973.00;;;13.43;100.00
59825;BME280;45703;50.898;6.054;2022-10-16T06:35:03;99978.91;;;13.45;100.00
59825;BME280;45703;50.898;6.054;2022-10-16T06:37:29;99973.25;;;13.41;100.00
59825;BME280;45703;50.898;6.054;2022-10-16T06:39:54;99980.81;;;13.44;100.00
59825;BME280;45703;50.898;6.054;2022-10-16T06:42:20;99988.09;;;13.49;100.00
59825;BME280;45703;50.898;6.054;2022-10-16T06:44:45;99988.28;;;13.59;100.00
59825;BME280;45703;50.898;6.054;2022-10-16T06:47:10;99991.94;;;13.53;100.00
59825;BME280;45703;50.898;6.054;2022-10-16T06:49:36;99982.84;;;13.54;100.00
59825;BME280;45703;50.898;6.054;2022-10-16T06:52:02;99999.72;;;13.54;100.00
59825;BME280;45703;50.898;6.054;2022-10-16T06:54:28;99999.38;;;13.51;100.00
59825;BME280;45703;50.898;6.054;2022-10-16T06:56:53;100001.59;;;13.54;100.00
59825;BME280;45703;50.898;6.054;2022-10-16T06:59:22;100018.16;;;13.51;100.00
59825;BME280;45703;50.898;6.054;2022-10-16T07:01:48;100014.41;;;13.52;100.00
59825;BME280;45703;50.898;6.054;2022-10-16T07:04:13;100011.19;;;13.50;100.00
59825;BME280;45703;50.898;6.054;2022-10-16T07:06:39;100027.84;;;13.52;100.00
59825;BME280;45703;50.898;6.054;2022-10-16T07:09:08;100029.94;;;13.50;100.00
59825;BME280;45703;50.898;6.054;2022-10-16T07:11:34;100036.38;;;13.49;100.00
59825;BME280;45703;50.898;6.054;2022-10-16T07:13:59;100031.50;;;13.46;100.00
59825;BME280;45703;50.898;6.054;2022-10-16T07:16:27;100032.16;;;13.53;100.00
59825;BME280;45703;50.898;6.054;2022-10-16T07:18:59;100037.03;;;13.56;100.00
59825;BME280;45703;50.898;6.054;2022-10-16T07:21:31;100038.25;;;13.48;100.00
59825;BME280;45703;50.898;6.054;2022-10-16T07:24:00;100051.75;;;13.53;100.00
59825;BME280;45703;50.898;6.054;2022-10-16T07:26:30;100056.88;;;13.55;100.00
59825;BME280;45703;50.898;6.054;2022-10-16T07:28:56;100046.88;;;13.50;100.00
59825;BME280;45703;50.898;6.054;2022-10-16T07:31:22;100062.88;;;13.62;100.00
59825;BME280;45703;50.898;6.054;2022-10-16T07:33:49;100073.91;;;13.65;100.00
59825;BME280;45703;50.898;6.054;2022-10-16T07:36:16;100065.94;;;13.70;100.00
59825;BME280;45703;50.898;6.054;2022-10-16T07:38:42;100072.78;;;13.78;100.00
59825;BME280;45703;50.898;6.054;2022-10-16T07:41:11;100077.72;;;13.86;100.00
59825;BME280;45703;50.898;6.054;2022-10-16T07:43:37;100078.28;;;13.88;100.00
59825;BME280;45703;50.898;6.054;2022-10-16T07:46:03;100087.53;;;13.97;100.00
59825;BME280;45703;50.898;6.054;2022-10-16T07:48:30;100087.38;;;14.03;100.00
59825;BME280;45703;50.898;6.054;2022-10-16T07:51:03;100089.50;;;14.18;100.00
59825;BME280;45703;50.898;6.054;2022-10-16T07:53:29;100096.06;;;14.27;100.00
59825;BME280;45703;50.898;6.054;2022-10-16T07:56:02;100087.84;;;14.33;100.00
59825;BME280;45703;50.898;6.054;2022-10-16T07:58:29;100092.72;;;14.36;100.00
59825;BME280;45703;50.898;6.054;2022-10-16T08:00:55;100087.63;;;14.40;100.00
59825;BME280;45703;50.898;6.054;2022-10-16T08:03:20;100089.31;;;14.45;100.00
59825;BME280;45703;50.898;6.054;2022-10-16T08:05:46;100101.06;;;14.61;100.00
59825;BME280;45703;50.898;6.054;2022-10-16T08:08:16;100106.28;;;14.67;99.83
59825;BME280;45703;50.898;6.054;2022-10-16T08:10:42;100106.34;;;14.72;99.45
59825;BME280;45703;50.898;6.054;2022-10-16T08:13:08;100115.50;;;14.76;99.04
59825;BME280;45703;50.898;6.054;2022-10-16T08:15:33;100116.97;;;14.84;98.67
59825;BME280;45703;50.898;6.054;2022-10-16T08:18:01;100119.19;;;14.92;97.85
59825;BME280;45703;50.898;6.054;2022-10-16T08:20:27;100105.69;;;14.87;97.87
59825;BME280;45703;50.898;6.054;2022-10-16T08:22:53;100123.06;;;15.01;97.85
59825;BME280;45703;50.898;6.054;2022-10-16T08:25:20;100131.16;;;15.06;97.62
59825;BME280;45703;50.898;6.054;2022-10-16T08:27:45;100127.75;;;15.10;97.42
59825;BME280;45703;50.898;6.054;2022-10-16T08:30:11;100131.53;;;15.14;97.25
59825;BME280;45703;50.898;6.054;2022-10-16T08:32:37;100136.16;;;15.19;97.32
59825;BME280;45703;50.898;6.054;2022-10-16T08:35:02;100137.53;;;15.21;96.56
59825;BME280;45703;50.898;6.054;2022-10-16T08:37:32;100145.22;;;15.34;96.00
59825;BME280;45703;50.898;6.054;2022-10-16T08:39:58;100144.72;;;15.37;96.01
59825;BME280;45703;50.898;6.054;2022-10-16T08:50:38;100157.34;;;15.63;94.16
59825;BME280;45703;50.898;6.054;2022-10-16T08:53:05;100163.31;;;15.70;94.01
59825;BME280;45703;50.898;6.054;2022-10-16T08:55:37;100164.69;;;15.73;93.29
59825;BME280;45703;50.898;6.054;2022-10-16T08:58:14;100180.13;;;15.82;92.71
59825;BME280;45703;50.898;6.054;2022-10-16T09:00:41;100164.81;;;15.88;93.55
59825;BME280;45703;50.898;6.054;2022-10-16T09:03:17;100163.53;;;15.95;91.18
59825;BME280;45703;50.898;6.054;2022-10-16T09:06:26;100168.69;;;16.01;91.40
59825;BME280;45703;50.898;6.054;2022-10-16T09:09:13;100174.38;;;16.05;91.94
59825;BME280;45703;50.898;6.054;2022-10-16T09:22:47;100186.47;;;16.34;90.03
59825;BME280;45703;50.898;6.054;2022-10-16T09:25:18;100192.97;;;16.38;90.52
59825;BME280;45703;50.898;6.054;2022-10-16T09:27:47;100188.66;;;16.37;89.10
59825;BME280;45703;50.898;6.054;2022-10-16T09:30:16;100181.16;;;16.44;89.15
59825;BME280;45703;50.898;6.054;2022-10-16T09:32:43;100194.41;;;16.50;87.35
59825;BME280;45703;50.898;6.054;2022-10-16T09:35:13;100187.09;;;16.51;86.61
59825;BME280;45703;50.898;6.054;2022-10-16T09:37:40;100191.22;;;16.58;87.07
59825;BME280;45703;50.898;6.054;2022-10-16T09:40:13;100185.00;;;16.58;87.11
59825;BME280;45703;50.898;6.054;2022-10-16T09:42:39;100183.16;;;16.63;86.53
59825;BME280;45703;50.898;6.054;2022-10-16T09:45:04;100191.25;;;16.68;85.53
59825;BME280;45703;50.898;6.054;2022-10-16T09:47:31;100185.06;;;16.68;86.45
59825;BME280;45703;50.898;6.054;2022-10-16T09:50:03;100191.25;;;16.68;85.12
59825;BME280;45703;50.898;6.054;2022-10-16T09:52:31;100185.88;;;16.68;84.41
59825;BME280;45703;50.898;6.054;2022-10-16T09:55:03;100192.34;;;16.72;86.13
59825;BME280;45703;50.898;6.054;2022-10-16T09:57:48;100188.34;;;16.75;85.27
59825;BME280;45703;50.898;6.054;2022-10-16T10:00:16;100179.69;;;16.68;86.42
59825;BME280;45703;50.898;6.054;2022-10-16T10:02:42;100181.56;;;16.72;85.64
59825;BME280;45703;50.898;6.054;2022-10-16T10:05:20;100187.25;;;16.71;80.92
59825;BME280;45703;50.898;6.054;2022-10-16T10:07:54;100194.53;;;16.75;85.99
59825;BME280;45703;50.898;6.054;2022-10-16T10:10:25;100194.00;;;16.78;85.84
59825;BME280;45703;50.898;6.054;2022-10-16T10:12:52;100196.69;;;16.78;84.33
59825;BME280;45703;50.898;6.054;2022-10-16T10:15:18;100187.81;;;16.78;86.01
59825;BME280;45703;50.898;6.054;2022-10-16T10:17:51;100189.97;;;16.81;83.25
59825;BME280;45703;50.898;6.054;2022-10-16T10:20:29;100192.97;;;16.84;85.61
59825;BME280;45703;50.898;6.054;2022-10-16T10:22:56;100186.78;;;16.89;85.42
59825;BME280;45703;50.898;6.054;2022-10-16T10:25:25;100200.28;;;16.94;86.03
59825;BME280;45703;50.898;6.054;2022-10-16T10:30:29;100194.66;;;17.05;85.94
59825;BME280;45703;50.898;6.054;2022-10-16T10:38:19;100207.69;;;17.23;84.88
59825;BME280;45703;50.898;6.054;2022-10-16T10:40:50;100198.81;;;17.28;85.26
59825;BME280;45703;50.898;6.054;2022-10-16T10:43:29;100204.75;;;17.30;81.87
59825;BME280;45703;50.898;6.054;2022-10-16T10:46:05;100209.34;;;17.34;83.11
59825;BME280;45703;50.898;6.054;2022-10-16T10:48:51;100216.13;;;17.37;80.11
59825;BME280;45703;50.898;6.054;2022-10-16T11:01:56;100212.38;;;17.57;82.35
59825;BME280;45703;50.898;6.054;2022-10-16T11:07:34;100207.28;;;17.71;81.08
59825;BME280;45703;50.898;6.054;2022-10-16T11:10:09;100214.06;;;17.78;81.54
59825;BME280;45703;50.898;6.054;2022-10-16T11:12:43;100217.84;;;17.82;82.36
59825;BME280;45703;50.898;6.054;2022-10-16T11:15:21;100217.84;;;17.82;82.76
59825;BME280;45703;50.898;6.054;2022-10-16T11:17:59;100225.94;;;17.82;78.27
59825;BME280;45703;50.898;6.054;2022-10-16T11:20:32;100217.06;;;17.87;82.34
59825;BME280;45703;50.898;6.054;2022-10-16T11:25:36;100206.25;;;17.97;82.00
59825;BME280;45703;50.898;6.054;2022-10-16T11:28:24;100208.13;;;18.06;82.25
59825;BME280;45703;50.898;6.054;2022-10-16T11:31:16;100214.63;;;18.15;82.70
59825;BME280;45703;50.898;6.054;2022-10-16T11:34:15;100212.72;;;18.21;78.30
59825;BME280;45703;50.898;6.054;2022-10-16T11:39:30;100218.41;;;18.34;79.33
59825;BME280;45703;50.898;6.054;2022-10-16T11:45:03;100224.34;;;18.51;80.71
59825;BME280;45703;50.898;6.054;2022-10-16T11:47:45;100224.84;;;18.58;81.04
59825;BME280;45703;50.898;6.054;2022-10-16T11:50:17;100224.31;;;18.61;80.57
59825;BME280;45703;50.898;6.054;2022-10-16T11:53:08;100225.94;;;18.67;80.06
59825;BME280;45703;50.898;6.054;2022-10-16T11:55:40;100218.91;;;18.71;77.85
59825;BME280;45703;50.898;6.054;2022-10-16T12:01:02;100229.16;;;18.79;74.35
59825;BME280;45703;50.898;6.054;2022-10-16T12:03:59;100220.72;;;18.86;77.60
59825;BME280;45703;50.898;6.054;2022-10-16T12:06:44;100222.13;;;18.83;74.64
59825;BME280;45703;50.898;6.054;2022-10-16T12:09:31;100210.72;;;18.91;78.81
59825;BME280;45703;50.898;6.054;2022-10-16T12:11:58;100214.50;;;18.95;79.04
59825;BME280;45703;50.898;6.054;2022-10-16T12:14:59;100218.78;;;19.01;79.47
59825;BME280;45703;50.898;6.054;2022-10-16T12:17:36;100218.22;;;19.09;77.68
59825;BME280;45703;50.898;6.054;2022-10-16T12:22:41;100207.94;;;19.21;79.32
59825;BME280;45703;50.898;6.054;2022-10-16T12:28:00;100221.38;;;19.41;79.97
59825;BME280;45703;50.898;6.054;2022-10-16T12:30:28;100222.13;;;19.51;79.43
59825;BME280;45703;50.898;6.054;2022-10-16T12:33:00;100224.81;;;19.56;80.03
59825;BME280;45703;50.898;6.054;2022-10-16T12:35:29;100228.53;;;19.65;79.71
59825;BME280;45703;50.898;6.054;2022-10-16T12:38:15;100220.66;;;19.69;79.72
59825;BME280;45703;50.898;6.054;2022-10-16T12:40:43;100209.28;;;19.72;79.54
59825;BME280;45703;50.898;6.054;2022-10-16T12:43:25;100210.31;;;19.76;79.48
59825;BME280;45703;50.898;6.054;2022-10-16T12:48:36;100208.72;;;19.75;79.25
59825;BME280;45703;50.898;6.054;2022-10-16T12:51:42;100204.34;;;19.79;79.02
59825;BME280;45703;50.898;6.054;2022-10-16T12:59:35;100212.50;;;19.74;78.46
59825;BME280;45703;50.898;6.054;2022-10-16T13:04:57;100206.34;;;19.63;77.74
59825;BME280;45703;50.898;6.054;2022-10-16T13:24:23;100207.75;;;19.51;78.81
59825;BME280;45703;50.898;6.054;2022-10-16T13:26:57;100199.41;;;19.47;78.26
59825;BME280;45703;50.898;6.054;2022-10-16T13:29:30;100202.69;;;19.44;78.83
59825;BME280;45703;50.898;6.054;2022-10-16T13:31:56;100210.50;;;19.46;79.44
59825;BME280;45703;50.898;6.054;2022-10-16T13:34:22;100206.69;;;19.47;79.63
59825;BME280;45703;50.898;6.054;2022-10-16T13:36:51;100210.50;;;19.46;79.50
59825;BME280;45703;50.898;6.054;2022-10-16T13:39:26;100217.00;;;19.45;79.66
59825;BME280;45703;50.898;6.054;2022-10-16T13:42:04;100214.56;;;19.48;79.92
59825;BME280;45703;50.898;6.054;2022-10-16T13:44:41;100223.47;;;19.49;79.95
59825;BME280;45703;50.898;6.054;2022-10-16T13:52:29;100221.56;;;19.54;80.60
59825;BME280;45703;50.898;6.054;2022-10-16T13:54:55;100222.88;;;19.57;80.41
59825;BME280;45703;50.898;6.054;2022-10-16T13:57:23;100215.84;;;19.56;80.30
59825;BME280;45703;50.898;6.054;2022-10-16T13:59:49;100211.00;;;19.53;80.09
59825;BME280;45703;50.898;6.054;2022-10-16T14:02:38;100215.13;;;19.45;79.58
59825;BME280;45703;50.898;6.054;2022-10-16T14:05:08;100215.97;;;19.36;79.99
59825;BME280;45703;50.898;6.054;2022-10-16T14:07:47;100218.75;;;19.26;79.81
59825;BME280;45703;50.898;6.054;2022-10-16T14:10:36;100216.09;;;19.16;79.54
59825;BME280;45703;50.898;6.054;2022-10-16T14:13:06;100217.69;;;19.07;80.10
59825;BME280;45703;50.898;6.054;2022-10-16T14:15:35;100221.25;;;19.02;80.31
59825;BME280;45703;50.898;6.054;2022-10-16T14:18:02;100230.16;;;18.98;80.50
59825;BME280;45703;50.898;6.054;2022-10-16T14:20:33;100232.91;;;18.93;80.16
59825;BME280;45703;50.898;6.054;2022-10-16T14:23:00;100228.06;;;18.85;80.56
59825;BME280;45703;50.898;6.054;2022-10-16T14:25:30;100231.28;;;18.87;80.63
59825;BME280;45703;50.898;6.054;2022-10-16T14:28:14;100226.44;;;18.84;80.92
59825;BME280;45703;50.898;6.054;2022-10-16T14:31:01;100216.97;;;18.82;79.04
59825;BME280;45703;50.898;6.054;2022-10-16T14:38:29;100225.94;;;18.72;81.08
59825;BME280;45703;50.898;6.054;2022-10-16T14:40:57;100223.78;;;18.69;81.10
59825;BME280;45703;50.898;6.054;2022-10-16T14:43:32;100224.88;;;18.68;81.18
59825;BME280;45703;50.898;6.054;2022-10-16T14:45:59;100218.38;;;18.64;81.09
59825;BME280;45703;50.898;6.054;2022-10-16T14:48:25;100206.47;;;18.55;81.45
59825;BME280;45703;50.898;6.054;2022-10-16T14:50:51;100214.34;;;18.57;81.73
59825;BME280;45703;50.898;6.054;2022-10-16T14:53:16;100220.00;;;18.55;81.77